createdAt,value
2017-12-06T00:02:07.121Z,100257.84
2017-12-06T00:04:38.711Z,100249.45
2017-12-06T00:07:09.921Z,100253.92
2017-12-06T00:09:41.300Z,100248.84
2017-12-06T00:12:17.306Z,100246.19
2017-12-06T00:14:54.116Z,100255.92
2017-12-06T00:17:25.805Z,100248.84
2017-12-06T00:19:57.019Z,100260.20
2017-12-06T00:22:29.900Z,100263.49
2017-12-06T00:25:02.427Z,100260.63
2017-12-06T00:27:33.242Z,100262.70
2017-12-06T00:30:04.994Z,100266.86
2017-12-06T00:32:36.429Z,100254.81
2017-12-06T00:35:10.313Z,100254.10
2017-12-06T00:37:41.259Z,100264.98
2017-12-06T00:40:12.842Z,100256.85
2017-12-06T00:42:44.002Z,100262.23
2017-12-06T00:45:14.890Z,100265.13
2017-12-06T00:47:46.278Z,100261.48
2017-12-06T00:50:17.238Z,100263.63
2017-12-06T00:52:48.475Z,100254.25
2017-12-06T00:55:19.810Z,100251.81
2017-12-06T00:57:51.283Z,100251.14
2017-12-06T01:00:22.575Z,100248.56
2017-12-06T01:02:53.688Z,100246.20
2017-12-06T01:05:24.661Z,100248.66
2017-12-06T01:07:55.651Z,100246.61
2017-12-06T01:10:26.793Z,100249.61
2017-12-06T01:13:01.592Z,100248.17
2017-12-06T01:15:33.129Z,100249.42
2017-12-06T01:18:04.100Z,100245.64
2017-12-06T01:20:35.134Z,100240.98
2017-12-06T01:23:06.524Z,100254.72
2017-12-06T01:25:37.417Z,100248.47
2017-12-06T01:28:08.299Z,100243.80
2017-12-06T01:30:39.458Z,100249.96
2017-12-06T01:33:10.402Z,100247.00
2017-12-06T01:35:41.707Z,100250.02
2017-12-06T01:38:13.043Z,100253.53
2017-12-06T01:40:44.386Z,100246.76
2017-12-06T01:43:16.006Z,100250.86
2017-12-06T01:45:47.305Z,100248.99
2017-12-06T01:48:18.567Z,100243.19
2017-12-06T01:50:49.744Z,100246.52
2017-12-06T01:53:20.759Z,100246.14
2017-12-06T01:55:51.866Z,100252.62
2017-12-06T01:58:22.997Z,100241.85
2017-12-06T02:00:54.944Z,100241.81
2017-12-06T02:03:26.602Z,100244.02
2017-12-06T02:05:58.303Z,100243.11
2017-12-06T02:08:29.423Z,100241.67
2017-12-06T02:11:00.746Z,100238.36
2017-12-06T02:13:32.278Z,100235.98
2017-12-06T02:16:04.332Z,100229.62
2017-12-06T02:18:37.416Z,100232.92
2017-12-06T02:21:09.152Z,100232.50
2017-12-06T02:23:40.442Z,100222.58
2017-12-06T02:26:11.540Z,100220.70
2017-12-06T02:28:43.492Z,100220.08
2017-12-06T02:31:15.143Z,100219.59
2017-12-06T02:33:46.499Z,100219.30
2017-12-06T02:36:17.458Z,100212.61
2017-12-06T02:38:49.678Z,100212.57
2017-12-06T02:43:31.839Z,100211.91
2017-12-06T02:46:03.365Z,100205.91
2017-12-06T02:48:34.481Z,100206.64
2017-12-06T02:51:05.474Z,100210.88
2017-12-06T02:53:36.867Z,100212.23
2017-12-06T02:56:09.191Z,100217.92
2017-12-06T02:58:41.658Z,100217.70
2017-12-06T03:01:12.994Z,100211.53
2017-12-06T03:03:44.230Z,100211.22
2017-12-06T03:06:15.564Z,100208.45
2017-12-06T03:08:46.538Z,100205.38
2017-12-06T03:11:17.613Z,100200.53
2017-12-06T03:13:49.633Z,100201.36
2017-12-06T03:16:20.865Z,100197.61
2017-12-06T03:18:51.917Z,100202.77
2017-12-06T03:21:23.100Z,100195.58
2017-12-06T03:23:53.970Z,100198.46
2017-12-06T03:26:25.109Z,100194.39
2017-12-06T03:28:56.145Z,100186.52
2017-12-06T03:31:27.183Z,100198.15
2017-12-06T03:33:58.296Z,100196.79
2017-12-06T03:36:29.895Z,100201.61
2017-12-06T03:39:03.765Z,100208.05
2017-12-06T03:41:35.350Z,100210.84
2017-12-06T03:44:06.338Z,100204.27
2017-12-06T03:46:37.799Z,100209.27
2017-12-06T03:49:09.027Z,100206.34
2017-12-06T03:51:40.169Z,100206.92
2017-12-06T03:54:11.246Z,100208.31
2017-12-06T03:56:43.020Z,100202.53
2017-12-06T03:59:14.135Z,100197.55
2017-12-06T04:01:44.944Z,100199.15
2017-12-06T04:04:16.100Z,100194.93
2017-12-06T04:06:46.928Z,100190.17
2017-12-06T04:09:17.879Z,100198.48
2017-12-06T04:11:53.614Z,100208.28
2017-12-06T04:14:24.959Z,100195.48
2017-12-06T04:16:56.131Z,100198.62
2017-12-06T04:19:27.140Z,100180.90
2017-12-06T04:21:58.167Z,100189.78
2017-12-06T04:24:29.362Z,100194.59
2017-12-06T04:27:00.166Z,100189.03
2017-12-06T04:29:31.617Z,100183.24
2017-12-06T04:32:02.999Z,100185.93
2017-12-06T04:34:33.905Z,100178.48
2017-12-06T04:37:04.943Z,100182.31
2017-12-06T04:39:36.198Z,100182.91
2017-12-06T04:42:07.121Z,100180.77
2017-12-06T04:44:38.067Z,100177.48
2017-12-06T04:47:09.214Z,100177.48
2017-12-06T04:49:40.131Z,100171.86
2017-12-06T04:52:11.558Z,100167.52
2017-12-06T04:54:43.789Z,100171.45
2017-12-06T04:57:14.842Z,100159.45
2017-12-06T04:59:45.990Z,100162.13
2017-12-06T05:02:18.322Z,100168.92
2017-12-06T05:04:50.041Z,100170.72
2017-12-06T05:07:23.695Z,100169.71
2017-12-06T05:09:59.210Z,100168.97
2017-12-06T05:12:30.642Z,100163.80
2017-12-06T05:15:05.106Z,100167.36
2017-12-06T05:17:38.499Z,100164.66
2017-12-06T05:20:12.092Z,100168.08
2017-12-06T05:22:43.683Z,100162.97
2017-12-06T05:25:15.213Z,100155.49
2017-12-06T05:27:47.954Z,100147.28
2017-12-06T05:30:19.616Z,100155.56
2017-12-06T05:32:52.859Z,100152.41
2017-12-06T05:35:28.724Z,100154.88
2017-12-06T05:38:00.651Z,100154.17
2017-12-06T05:40:32.433Z,100146.88
2017-12-06T05:43:03.628Z,100152.58
2017-12-06T05:45:35.139Z,100148.72
2017-12-06T05:48:06.301Z,100155.53
2017-12-06T05:50:37.672Z,100146.28
2017-12-06T05:53:08.737Z,100145.87
2017-12-06T05:55:39.717Z,100144.02
2017-12-06T05:58:11.587Z,100140.73
2017-12-06T06:00:42.430Z,100134.00
2017-12-06T06:03:14.165Z,100126.59
2017-12-06T06:05:51.160Z,100132.86
2017-12-06T06:08:23.848Z,100131.61
2017-12-06T06:10:55.279Z,100128.72
2017-12-06T06:13:27.194Z,100131.51
2017-12-06T06:16:01.428Z,100136.75
2017-12-06T06:18:40.017Z,100138.27
2017-12-06T06:21:12.163Z,100131.99
2017-12-06T06:23:44.531Z,100134.20
2017-12-06T06:26:16.536Z,100133.11
2017-12-06T06:28:48.959Z,100130.58
2017-12-06T06:31:20.978Z,100131.99
2017-12-06T06:33:52.090Z,100129.24
2017-12-06T06:36:26.199Z,100130.45
2017-12-06T06:38:58.272Z,100139.99
2017-12-06T06:41:29.811Z,100133.02
2017-12-06T06:44:01.250Z,100125.88
2017-12-06T06:46:33.896Z,100122.95
2017-12-06T06:49:05.684Z,100128.59
2017-12-06T06:51:37.508Z,100132.20
2017-12-06T06:54:08.722Z,100131.47
2017-12-06T06:56:39.693Z,100135.02
2017-12-06T06:59:10.656Z,100131.79
2017-12-06T07:01:42.379Z,100130.36
2017-12-06T07:04:15.214Z,100133.30
2017-12-06T07:06:46.621Z,100135.27
2017-12-06T07:09:17.932Z,100147.00
2017-12-06T07:11:48.970Z,100144.66
2017-12-06T07:14:21.410Z,100149.81
2017-12-06T07:16:54.202Z,100149.83
2017-12-06T07:19:28.876Z,100151.80
2017-12-06T07:22:00.032Z,100152.26
2017-12-06T07:24:32.709Z,100152.36
2017-12-06T07:27:05.176Z,100160.06
2017-12-06T07:29:36.802Z,100158.09
2017-12-06T07:32:11.373Z,100163.31
2017-12-06T07:34:44.701Z,100164.12
2017-12-06T07:37:16.310Z,100161.73
2017-12-06T07:39:47.544Z,100165.90
2017-12-06T07:42:19.569Z,100168.16
2017-12-06T07:44:50.754Z,100162.52
2017-12-06T07:47:23.240Z,100166.63
2017-12-06T07:49:54.860Z,100174.17
2017-12-06T07:52:27.105Z,100171.28
2017-12-06T07:54:59.399Z,100176.42
2017-12-06T07:57:31.978Z,100185.83
2017-12-06T08:00:05.224Z,100185.27
2017-12-06T08:02:36.233Z,100181.41
2017-12-06T08:05:07.437Z,100178.73
2017-12-06T08:07:38.830Z,100178.48
2017-12-06T08:10:10.141Z,100178.05
2017-12-06T08:12:41.388Z,100181.17
2017-12-06T08:15:12.450Z,100178.44
2017-12-06T08:17:43.595Z,100172.98
2017-12-06T08:20:14.948Z,100178.94
2017-12-06T08:22:46.103Z,100183.05
2017-12-06T08:25:17.289Z,100181.77
2017-12-06T08:27:48.578Z,100181.58
2017-12-06T08:30:20.518Z,100194.98
2017-12-06T08:32:53.151Z,100190.91
2017-12-06T08:35:25.938Z,100190.36
2017-12-06T08:37:58.436Z,100190.06
2017-12-06T08:40:32.625Z,100193.02
2017-12-06T08:43:04.158Z,100191.73
2017-12-06T08:45:36.913Z,100188.64
2017-12-06T08:48:09.022Z,100181.25
2017-12-06T08:50:40.310Z,100177.72
2017-12-06T08:53:11.904Z,100180.11
2017-12-06T08:55:43.059Z,100182.91
2017-12-06T08:58:15.629Z,100184.00
2017-12-06T09:00:46.568Z,100184.39
2017-12-06T09:03:17.777Z,100186.64
2017-12-06T09:05:49.076Z,100185.28
2017-12-06T09:08:19.893Z,100177.30
2017-12-06T09:10:51.087Z,100176.06
2017-12-06T09:13:22.138Z,100182.81
2017-12-06T09:15:53.233Z,100175.08
2017-12-06T09:18:24.545Z,100176.18
2017-12-06T09:20:55.595Z,100180.50
2017-12-06T09:23:26.390Z,100181.56
2017-12-06T09:25:57.444Z,100179.48
2017-12-06T09:28:28.730Z,100184.31
2017-12-06T09:31:01.122Z,100178.00
2017-12-06T09:33:32.984Z,100175.97
2017-12-06T09:36:04.655Z,100176.52
2017-12-06T09:38:36.054Z,100178.05
2017-12-06T09:41:06.999Z,100174.84
2017-12-06T09:43:38.222Z,100176.68
2017-12-06T09:46:09.379Z,100174.27
2017-12-06T09:48:42.611Z,100169.73
2017-12-06T09:51:13.967Z,100168.70
2017-12-06T09:53:44.960Z,100165.98
2017-12-06T09:56:16.762Z,100165.90
2017-12-06T09:58:47.688Z,100163.23
2017-12-06T10:01:18.622Z,100152.72
2017-12-06T10:03:49.797Z,100152.14
2017-12-06T10:06:20.937Z,100147.47
2017-12-06T10:08:51.969Z,100133.81
2017-12-06T10:11:23.019Z,100142.48
2017-12-06T10:13:54.107Z,100139.60
2017-12-06T10:16:25.434Z,100135.56
2017-12-06T10:18:56.635Z,100133.42
2017-12-06T10:21:27.719Z,100132.50
2017-12-06T10:23:59.133Z,100128.81
2017-12-06T10:26:30.205Z,100131.83
2017-12-06T10:29:01.288Z,100127.45
2017-12-06T10:31:32.639Z,100121.23
2017-12-06T10:34:03.600Z,100129.20
2017-12-06T10:36:34.674Z,100121.82
2017-12-06T10:39:06.081Z,100129.20
2017-12-06T10:41:37.218Z,100133.20
2017-12-06T10:44:08.916Z,100132.53
2017-12-06T10:46:40.257Z,100137.94
2017-12-06T10:49:11.701Z,100134.02
2017-12-06T10:51:43.463Z,100128.69
2017-12-06T10:54:14.463Z,100122.02
2017-12-06T10:56:45.534Z,100116.23
2017-12-06T10:59:16.624Z,100110.33
2017-12-06T11:01:47.867Z,100116.15
2017-12-06T11:04:18.815Z,100115.45
2017-12-06T11:06:50.230Z,100119.48
2017-12-06T11:09:21.273Z,100104.48
2017-12-06T11:11:52.412Z,100108.15
2017-12-06T11:14:23.728Z,100112.78
2017-12-06T11:16:55.383Z,100105.53
2017-12-06T11:19:27.724Z,100103.38
2017-12-06T11:21:59.249Z,100095.88
2017-12-06T11:24:32.280Z,100100.92
2017-12-06T11:27:03.622Z,100092.28
2017-12-06T11:29:35.097Z,100092.55
2017-12-06T11:32:06.333Z,100089.86
2017-12-06T11:34:37.283Z,100090.36
2017-12-06T11:37:08.666Z,100090.50
2017-12-06T11:39:39.543Z,100094.78
2017-12-06T11:42:10.897Z,100101.67
2017-12-06T11:44:41.903Z,100102.28
2017-12-06T11:47:13.327Z,100099.02
2017-12-06T11:49:44.182Z,100089.84
2017-12-06T11:52:15.386Z,100089.38
2017-12-06T11:54:46.792Z,100086.16
2017-12-06T11:57:17.698Z,100093.00
2017-12-06T11:59:48.587Z,100084.40
2017-12-06T12:02:20.183Z,100089.17
2017-12-06T12:04:51.115Z,100084.87
2017-12-06T12:07:22.247Z,100083.05
2017-12-06T12:09:56.578Z,100084.36
2017-12-06T12:12:27.827Z,100084.66
2017-12-06T12:14:58.649Z,100088.16
2017-12-06T12:17:30.048Z,100075.70
2017-12-06T12:20:01.338Z,100087.47
2017-12-06T12:22:32.538Z,100082.86
2017-12-06T12:25:03.915Z,100086.23
2017-12-06T12:27:35.206Z,100090.72
2017-12-06T12:30:06.794Z,100089.11
2017-12-06T12:32:38.103Z,100076.00
2017-12-06T12:35:09.136Z,100084.49
2017-12-06T12:37:41.094Z,100082.61
2017-12-06T12:40:12.779Z,100091.12
2017-12-06T12:42:45.362Z,100082.79
2017-12-06T12:45:17.027Z,100086.16
2017-12-06T12:47:48.718Z,100081.59
2017-12-06T12:50:20.437Z,100078.98
2017-12-06T12:52:51.667Z,100077.05
2017-12-06T12:55:23.019Z,100085.48
2017-12-06T12:57:54.419Z,100079.58
2017-12-06T13:00:25.797Z,100080.78
2017-12-06T13:02:57.174Z,100078.07
2017-12-06T13:05:29.211Z,100081.56
2017-12-06T13:08:00.368Z,100075.15
2017-12-06T13:10:32.243Z,100076.98
2017-12-06T13:13:05.787Z,100072.00
2017-12-06T13:15:39.558Z,100080.86
2017-12-06T13:18:13.232Z,100069.78
2017-12-06T13:20:44.830Z,100071.13
2017-12-06T13:23:17.936Z,100073.52
2017-12-06T13:25:50.264Z,100069.40
2017-12-06T13:28:22.704Z,100054.23
2017-12-06T13:30:54.048Z,100060.64
2017-12-06T13:33:27.823Z,100058.80
2017-12-06T13:35:59.341Z,100066.44
2017-12-06T13:38:31.101Z,100062.03
2017-12-06T13:41:02.378Z,100065.50
2017-12-06T13:43:33.886Z,100060.54
2017-12-06T13:46:07.694Z,100065.23
2017-12-06T13:48:41.861Z,100068.19
2017-12-06T13:51:14.607Z,100066.14
2017-12-06T13:53:46.310Z,100069.06
2017-12-06T13:56:18.605Z,100071.63
2017-12-06T13:58:53.783Z,100065.88
2017-12-06T14:01:26.326Z,100065.70
2017-12-06T14:03:57.790Z,100071.47
2017-12-06T14:06:29.706Z,100066.84
2017-12-06T14:09:01.212Z,100057.72
2017-12-06T14:11:37.832Z,100073.54
2017-12-06T14:14:09.712Z,100060.14
2017-12-06T14:16:40.928Z,100060.87
2017-12-06T14:19:12.948Z,100062.50
2017-12-06T14:21:45.205Z,100062.34
2017-12-06T14:24:19.007Z,100064.52
2017-12-06T14:26:52.116Z,100069.20
2017-12-06T14:29:23.732Z,100067.41
2017-12-06T14:31:54.950Z,100065.95
2017-12-06T14:34:30.230Z,100065.19
2017-12-06T14:37:02.038Z,100058.03
2017-12-06T14:39:34.937Z,100064.54
2017-12-06T14:42:10.706Z,100062.28
2017-12-06T14:44:43.239Z,100063.70
2017-12-06T14:47:17.885Z,100057.17
2017-12-06T14:49:49.456Z,100063.45
2017-12-06T14:52:21.468Z,100064.09
2017-12-06T14:54:53.114Z,100059.70
2017-12-06T14:57:25.078Z,100061.95
2017-12-06T14:59:57.676Z,100059.52
2017-12-06T15:02:32.562Z,100060.50
2017-12-06T15:05:04.505Z,100060.29
2017-12-06T15:07:36.690Z,100062.02
2017-12-06T15:10:13.794Z,100056.27
2017-12-06T15:12:46.900Z,100058.87
2017-12-06T15:15:22.338Z,100060.72
2017-12-06T15:17:55.679Z,100062.77
2017-12-06T15:20:27.890Z,100062.97
2017-12-06T15:23:00.281Z,100063.16
2017-12-06T15:25:32.671Z,100068.88
2017-12-06T15:28:09.201Z,100067.84
2017-12-06T15:30:50.168Z,100068.84
2017-12-06T15:33:35.555Z,100058.77
2017-12-06T15:36:08.920Z,100058.73
2017-12-06T15:38:41.762Z,100055.44
2017-12-06T15:41:17.461Z,100062.42
2017-12-06T15:43:49.273Z,100057.31
2017-12-06T15:46:22.683Z,100052.88
2017-12-06T15:48:54.840Z,100059.98
2017-12-06T15:51:28.882Z,100057.36
2017-12-06T15:54:02.320Z,100061.80
2017-12-06T15:56:34.385Z,100057.66
2017-12-06T15:59:06.902Z,100053.27
2017-12-06T16:01:38.225Z,100055.52
2017-12-06T16:04:12.438Z,100049.64
2017-12-06T16:06:46.606Z,100056.16
2017-12-06T16:09:18.734Z,100049.64
2017-12-06T16:11:51.008Z,100048.02
2017-12-06T16:14:22.256Z,100049.38
2017-12-06T16:16:53.631Z,100051.98
2017-12-06T16:19:26.365Z,100054.55
2017-12-06T16:21:58.867Z,100047.69
2017-12-06T16:24:33.243Z,100041.13
2017-12-06T16:27:07.094Z,100045.72
2017-12-06T16:29:40.837Z,100051.34
2017-12-06T16:32:14.317Z,100050.03
2017-12-06T16:34:53.022Z,100044.60
2017-12-06T16:37:33.924Z,100039.41
2017-12-06T16:40:09.389Z,100040.08
2017-12-06T16:42:41.337Z,100042.94
2017-12-06T16:45:16.044Z,100040.34
2017-12-06T16:47:47.767Z,100044.05
2017-12-06T16:50:22.061Z,100034.56
2017-12-06T16:52:54.230Z,100041.33
2017-12-06T16:55:25.842Z,100041.70
2017-12-06T16:57:57.389Z,100043.84
2017-12-06T17:00:29.076Z,100038.01
2017-12-06T17:03:01.135Z,100031.53
2017-12-06T17:05:32.926Z,100026.97
2017-12-06T17:08:09.615Z,100022.92
2017-12-06T17:10:43.427Z,100025.65
2017-12-06T17:13:15.120Z,100025.52
2017-12-06T17:15:48.053Z,100021.80
2017-12-06T17:27:35.138Z,100024.41
2017-12-06T17:32:35.599Z,100031.44
2017-12-06T18:00:19.217Z,100008.38
2017-12-06T18:02:50.759Z,100004.63
2017-12-06T18:05:22.333Z,100000.49
2017-12-06T18:07:54.120Z,100001.56
2017-12-06T18:10:25.659Z,99995.67
2017-12-06T18:12:57.136Z,99991.48
2017-12-06T18:15:58.281Z,99997.61
2017-12-06T18:18:30.600Z,99996.85
2017-12-06T18:21:01.723Z,99992.39
2017-12-06T18:23:35.439Z,99988.43
2017-12-06T18:26:08.277Z,99980.72
2017-12-06T18:28:39.750Z,99973.77
2017-12-06T18:31:11.038Z,99976.77
2017-12-06T18:33:42.433Z,99979.48
2017-12-06T18:36:14.705Z,99975.12
